Jacksonville, FL (32239)

3:57 AM EST on February 07, 2016 (GMT -0500)
Raymur Villas | | Change Station
CLOSE
Current Station
Personal Weather Station
Location: Jacksonville, FL
Elevation: 75 ft
Nearby Weather Stations

Elev 75 ft 30.36 °N, 81.56 °W | Updated 12 seconds ago

Partly Cloudy
Partly Cloudy
42.7 °F
Feels Like 43 °F
N
2.0
Wind Variable Wind from West
Gusts 6.3 mph

Today
High -- | Low -- °F
--% Chance of Precip.
Yesterday
High -- | Low -- °F
Precip. -- in
Pressure 29.99 in
Visibility 5.0 miles
Clouds Overcast 800 ft
Windchill 43 °F
Dew Point 40 °F
Humidity 92%
Rainfall 0.31 in
Snow Depth Not available.
7:13 AM 6:07 PM
Waning Crescent, 2% visible
METAR KCRG 070853Z AUTO 31012G21KT 5SM RA BR OVC008 06/04 A2999 RMK AO2 CIG 005V012 SLP156 P0002 60006 T00610044 55014
Pressure 29.99 in
Visibility 5.0 miles
Clouds Overcast 800 ft
Windchill 43 °F
Dew Point 40 °F
Humidity 92%
Rainfall 0.31 in
Snow Depth Not available.
7:13 AM 6:07 PM
Waning Crescent, 2% visible
METAR KCRG 070853Z AUTO 31012G21KT 5SM RA BR OVC008 06/04 A2999 RMK AO2 CIG 005V012 SLP156 P0002 60006 T00610044 55014

10-Day Weather Forecast

Almanac

Astronomy

Feb. 07, 2016 Rise Set
Actual Time
Civil Twilight
Nautical Twilight
Astronomical Twilight
Moon
Length of Visible Light
Length of Day
Tomorrow will be .
, % of the Moon is Illuminated

Today's Extremes

State Highs State Lows

Community

WunderPhotos

Upload Photos

1,891,171 photos uploaded!

WunderBlog® & News

Nearby

Air Quality

  Air Quality AQ Index Pollutant
Not available.

Snow Depth

Station Depth Elevation

Earthquake Activity

City Distance Mag. Time & Date
Minimum magnitude displayed is 2.5.

Coastal Water Temperatures

Place Temperature

Stations

Nearby Weather Stations

Station Location Temp. Windchill Dew Point Humidity Wind Precip. Elev Updated Type
                   

Watches & Warnings

There are currently no watches in effect.